This is the latest recevied weather packets stored in our database for station/object TG9ADI-20. If no packets are shown the sender has not sent any weather packets the latest 10 day(s).
| Time | Temp. | Humidity | Pressure | Rain* | Wind** | Luminosity | Snow |
|---|---|---|---|---|---|---|---|
| 1777784192 | 20.56° C | 88% | 1016 hPa | 0.25 mm | - | - | - |
| 1777783591 | 18.33° C | 96% | 1016 hPa | 0 mm | - | - | - |
| 1777782990 | 18.89° C | 95% | 1016 hPa | 0.25 mm | - | - | - |
| 1777782390 | 19.44° C | 10% | - | 0 mm | - | - | - |
| 1777781789 | 18.33° C | 92% | 1017 hPa | 0 mm | - | - | - |
| 1777781188 | 18.33° C | 92% | 1017 hPa | 0 mm | - | - | - |
| 1777780588 | 18.89° C | 91% | 1017 hPa | 0 mm | - | - | - |
| 1777779987 | 20° C | 89% | 1017 hPa | 0 mm | - | - | - |
| 1777779387 | 20.56° C | 85% | 1017 hPa | 0 mm | - | - | - |
| 1777778786 | 21.67° C | 78% | 1015 hPa | 0 mm | - | - | - |
| 1777778185 | 18.33° C | 96% | 1015 hPa | 0 mm | - | - | - |
| 1777777585 | 18.33° C | 96% | 1015 hPa | 0 mm | - | - | - |
| 1777776984 | 18.89° C | 96% | 1015 hPa | 0 mm | - | - | - |
| 1777776383 | 19.44° C | 95% | 1015 hPa | 0 mm | - | - | - |
| 1777775782 | 19.44° C | 95% | 1015 hPa | 0 mm | - | - | - |
| 1777775182 | 20.56° C | 88% | 1014 hPa | 0 mm | - | - | - |
| 1777774581 | 18.89° C | 10% | - | 0 mm | - | - | - |
| 1777773981 | 17.78° C | 10% | - | 0 mm | - | - | - |
| 1777773380 | 18.89° C | 10% | - | 0 mm | - | - | - |
| 1777772779 | 18.89° C | 10% | - | 0 mm | - | - | - |
| 1777772178 | 18.89° C | 10% | - | 0 mm | - | - | - |
| 1777771578 | 18.89° C | 10% | - | 0 mm | - | - | - |
| 1777770972 | 18.89° C | 10% | - | 0 mm | - | - | - |
| 1777770371 | 19.44° C | 10% | - | 0 mm | - | - | - |
| 1777769771 | 19.44° C | 10% | - | 0 mm | - | - | - |
* Rain latest hour (hover to see other rain measurements)
** Current wind speed in m/s (hover to see current wind gust speed)